Glasco, KS

5:31 AM CDT on July 23, 2014 (GMT -0500)
Hebron Municipal (KHJH) Elev 1467 ft | 40.15 °N, 97.59 °W | Change Station

Current weather conditions updated 16 minutes ago

Clear
Clear
70 °F
Feels Like 70 °F
N
5
Wind Variable Wind from NE

Today is forecast to be nearly the same temperature as yesterday.

Today
High -- | Low -- °F
--% Chance of Precip.
Yesterday
High -- | Low -- °F
Precip. -- in
6:23 AM 8:51 PM
Waning Crescent, 11% visible
Pressure 30.21 in
Visibility 10.0 miles
Clouds Clear
Dew Point 66 °F
Humidity 86%
Rainfall 0.00 in
Snow Depth Not available.
UV 0 out of 12
Pollen 6.00 out of 12
Air Quality Not available.
Flu Activity Not available.
METAR KHJH 231015Z AUTO 05004KT 10SM CLR 21/19 A3021 RMK AO2 LTG DSNT W T02110186

More Conditions Fewer Conditions

Pressure 30.21 in
Visibility 10.0 miles
Clouds Clear
Dew Point 66 °F
Humidity 86%
Rainfall 0.00 in
Snow Depth Not available.
UV 0 out of 12
Pollen 6.00 out of 12
Air Quality Not available.
Flu Activity Not available.
METAR KHJH 231015Z AUTO 05004KT 10SM CLR 21/19 A3021 RMK AO2 LTG DSNT W T02110186

More Conditions Fewer Conditions

10-Day Weather Forecast

Almanac

Astronomy

Jul. 23, 2014 Rise Set
Actual Time 6:23 AM CDT 8:51 PM CDT
Civil Twilight 5:52 AM CDT 9:22 PM CDT
Nautical Twilight 5:14 AM CDT 10:00 PM CDT
Astronomical Twilight 4:32 AM CDT 10:42 PM CDT
Moon 3:43 AM CDT 6:21 PM CDT
Length of Visible Light 15h 29m
Length of Day
14h 28m
Tomorrow will be 1m 40s shorter.
Waning Crescent, 11% of the Moon is Illuminated
Today
Waning Crescent
Jul 26
New
Aug 3
First Quarter
Aug 10
Full
Aug 17
Last Quarter

Today's Extremes

State Highs State Lows

Community

WunderPhotos

Upload Photos

1,736,556 photos uploaded!

Nearby

Snow Depth

Station Depth Elevation
No new snow has been reported.

Earthquake Activity

City Distance Mag. Time & Date
No recent earthquake activity has been reported nearby.
Minimum magnitude displayed is 2.5.

Coastal Water Temperatures

Place Temperature
No Stations Reporting

Nearby Weather Stations

Station Location Temp. Heat Index Dew Point Humidity Wind Precip. Elev Updated Type
Simpson KS, Beloit, KS 74.3 °F 71 °F 74 °F 98% NE  at  8.3 mph - / hr 1342 ft 5:23 AM CDT Normal
Chancy's Pond, Delphos, KS 74.0 °F 74 °F 68 °F 83% NE  at  0.0 mph 0.00 in / hr 1375 ft 5:31 AM CDT Rapid Fire
Joe's Place, Concordia, KS 72.5 °F 71 °F 68 °F 85% NE  at  5.0 mph 0.00 in / hr 1440 ft 5:31 AM CDT Rapid Fire
Center Township, BELOIT, KS 74.6 °F 75 °F 69 °F 82% NNE  at  2.0 mph 0.00 in / hr 1504 ft 5:31 AM CDT Normal
ERC Field, Minneapolis, KS 73.9 °F 73 °F 69 °F 84% NE  at  3.7 mph - / hr 1309 ft 5:28 AM CDT Normal

Show More Stations Show Fewer Stations